sensor_id;sensor_type;location;lat;lon;timestamp;temperature;humidity
17208;DHT22;8720;48.488;9.202;2023-03-16T00:00:16;3.90;55.30
17208;DHT22;8720;48.488;9.202;2023-03-16T00:02:45;3.90;55.40
17208;DHT22;8720;48.488;9.202;2023-03-16T00:05:13;3.90;55.40
17208;DHT22;8720;48.488;9.202;2023-03-16T00:07:41;3.80;55.40
17208;DHT22;8720;48.488;9.202;2023-03-16T00:10:10;3.80;55.50
17208;DHT22;8720;48.488;9.202;2023-03-16T00:12:39;3.80;55.50
17208;DHT22;8720;48.488;9.202;2023-03-16T00:15:08;3.80;55.60
17208;DHT22;8720;48.488;9.202;2023-03-16T00:17:36;3.70;55.60
17208;DHT22;8720;48.488;9.202;2023-03-16T00:20:06;3.70;55.60
17208;DHT22;8720;48.488;9.202;2023-03-16T00:22:34;3.70;55.70
17208;DHT22;8720;48.488;9.202;2023-03-16T00:25:01;3.70;55.70
17208;DHT22;8720;48.488;9.202;2023-03-16T00:27:29;3.70;55.80
17208;DHT22;8720;48.488;9.202;2023-03-16T00:29:56;3.60;55.80
17208;DHT22;8720;48.488;9.202;2023-03-16T00:32:27;3.70;56.00
17208;DHT22;8720;48.488;9.202;2023-03-16T00:34:56;3.60;56.00
17208;DHT22;8720;48.488;9.202;2023-03-16T00:37:26;3.60;56.20
17208;DHT22;8720;48.488;9.202;2023-03-16T00:39:54;3.60;56.30
17208;DHT22;8720;48.488;9.202;2023-03-16T00:42:23;3.60;56.40
17208;DHT22;8720;48.488;9.202;2023-03-16T00:44:53;3.60;56.50
17208;DHT22;8720;48.488;9.202;2023-03-16T00:47:23;3.60;56.60
17208;DHT22;8720;48.488;9.202;2023-03-16T00:49:51;3.70;56.80
17208;DHT22;8720;48.488;9.202;2023-03-16T00:52:19;3.70;56.90
17208;DHT22;8720;48.488;9.202;2023-03-16T00:54:50;3.70;57.00
17208;DHT22;8720;48.488;9.202;2023-03-16T00:57:19;3.70;57.00
17208;DHT22;8720;48.488;9.202;2023-03-16T00:59:48;3.70;57.10
17208;DHT22;8720;48.488;9.202;2023-03-16T01:02:16;3.70;57.10
17208;DHT22;8720;48.488;9.202;2023-03-16T01:04:48;3.70;57.10
17208;DHT22;8720;48.488;9.202;2023-03-16T01:07:17;3.80;57.20
17208;DHT22;8720;48.488;9.202;2023-03-16T01:09:46;3.80;57.20
17208;DHT22;8720;48.488;9.202;2023-03-16T01:12:16;3.80;57.10
17208;DHT22;8720;48.488;9.202;2023-03-16T01:14:47;3.80;57.00
17208;DHT22;8720;48.488;9.202;2023-03-16T01:17:15;3.90;57.10
17208;DHT22;8720;48.488;9.202;2023-03-16T01:19:44;3.90;57.00
17208;DHT22;8720;48.488;9.202;2023-03-16T01:22:12;3.90;57.00
17208;DHT22;8720;48.488;9.202;2023-03-16T01:24:41;3.90;57.00
17208;DHT22;8720;48.488;9.202;2023-03-16T01:27:11;3.90;57.00
17208;DHT22;8720;48.488;9.202;2023-03-16T01:29:41;3.90;57.00
17208;DHT22;8720;48.488;9.202;2023-03-16T01:32:09;3.90;57.00
17208;DHT22;8720;48.488;9.202;2023-03-16T01:34:38;3.90;57.00
17208;DHT22;8720;48.488;9.202;2023-03-16T01:37:06;3.90;57.00
17208;DHT22;8720;48.488;9.202;2023-03-16T01:39:50;3.90;57.00
17208;DHT22;8720;48.488;9.202;2023-03-16T01:42:18;4.00;57.10
17208;DHT22;8720;48.488;9.202;2023-03-16T01:44:53;4.00;57.20
17208;DHT22;8720;48.488;9.202;2023-03-16T01:47:26;4.00;57.10
17208;DHT22;8720;48.488;9.202;2023-03-16T01:49:55;4.00;57.20
17208;DHT22;8720;48.488;9.202;2023-03-16T01:52:28;4.00;57.70
17208;DHT22;8720;48.488;9.202;2023-03-16T01:55:01;4.00;57.00
17208;DHT22;8720;48.488;9.202;2023-03-16T01:57:35;4.00;57.00
17208;DHT22;8720;48.488;9.202;2023-03-16T02:00:10;4.10;57.10
17208;DHT22;8720;48.488;9.202;2023-03-16T02:02:56;4.10;57.10
17208;DHT22;8720;48.488;9.202;2023-03-16T02:05:39;4.10;57.10
17208;DHT22;8720;48.488;9.202;2023-03-16T02:08:13;4.10;57.00
17208;DHT22;8720;48.488;9.202;2023-03-16T02:10:42;4.10;57.00
17208;DHT22;8720;48.488;9.202;2023-03-16T02:13:11;4.10;57.00
17208;DHT22;8720;48.488;9.202;2023-03-16T02:15:39;4.10;57.60
17208;DHT22;8720;48.488;9.202;2023-03-16T02:18:08;4.10;56.90
17208;DHT22;8720;48.488;9.202;2023-03-16T02:20:39;4.10;56.90
17208;DHT22;8720;48.488;9.202;2023-03-16T02:23:12;4.20;56.90
17208;DHT22;8720;48.488;9.202;2023-03-16T02:25:51;4.20;56.80
17208;DHT22;8720;48.488;9.202;2023-03-16T02:28:34;4.20;56.80
17208;DHT22;8720;48.488;9.202;2023-03-16T02:31:06;4.20;56.80
17208;DHT22;8720;48.488;9.202;2023-03-16T02:33:33;4.20;57.20
17208;DHT22;8720;48.488;9.202;2023-03-16T02:36:02;4.20;56.70
17208;DHT22;8720;48.488;9.202;2023-03-16T02:38:29;4.20;56.70
17208;DHT22;8720;48.488;9.202;2023-03-16T02:40:59;4.20;56.80
17208;DHT22;8720;48.488;9.202;2023-03-16T02:43:36;4.20;56.70
17208;DHT22;8720;48.488;9.202;2023-03-16T02:46:19;4.20;56.60
17208;DHT22;8720;48.488;9.202;2023-03-16T02:48:53;4.20;56.60
17208;DHT22;8720;48.488;9.202;2023-03-16T02:51:27;4.20;56.60
17208;DHT22;8720;48.488;9.202;2023-03-16T02:53:55;4.20;56.70
17208;DHT22;8720;48.488;9.202;2023-03-16T02:56:23;4.20;56.70
17208;DHT22;8720;48.488;9.202;2023-03-16T02:58:51;4.20;56.60
17208;DHT22;8720;48.488;9.202;2023-03-16T03:01:21;4.20;56.40
17208;DHT22;8720;48.488;9.202;2023-03-16T03:03:48;4.20;56.00
17208;DHT22;8720;48.488;9.202;2023-03-16T03:06:16;4.10;55.70
17208;DHT22;8720;48.488;9.202;2023-03-16T03:08:44;4.10;55.60
17208;DHT22;8720;48.488;9.202;2023-03-16T03:11:12;4.00;55.50
17208;DHT22;8720;48.488;9.202;2023-03-16T03:13:39;3.90;55.40
17208;DHT22;8720;48.488;9.202;2023-03-16T03:16:12;3.80;55.40
17208;DHT22;8720;48.488;9.202;2023-03-16T03:18:41;3.80;55.40
17208;DHT22;8720;48.488;9.202;2023-03-16T03:21:11;3.70;55.30
17208;DHT22;8720;48.488;9.202;2023-03-16T03:23:39;3.60;55.30
17208;DHT22;8720;48.488;9.202;2023-03-16T03:26:06;3.60;55.40
17208;DHT22;8720;48.488;9.202;2023-03-16T03:28:34;3.50;55.50
17208;DHT22;8720;48.488;9.202;2023-03-16T03:31:01;3.40;56.10
17208;DHT22;8720;48.488;9.202;2023-03-16T03:33:29;3.40;55.60
17208;DHT22;8720;48.488;9.202;2023-03-16T03:35:59;3.30;55.50
17208;DHT22;8720;48.488;9.202;2023-03-16T03:38:32;3.30;55.60
17208;DHT22;8720;48.488;9.202;2023-03-16T03:40:59;3.20;55.60
17208;DHT22;8720;48.488;9.202;2023-03-16T03:43:31;3.20;55.80
17208;DHT22;8720;48.488;9.202;2023-03-16T03:46:02;3.10;55.90
17208;DHT22;8720;48.488;9.202;2023-03-16T03:48:32;3.10;56.10
17208;DHT22;8720;48.488;9.202;2023-03-16T03:51:01;3.10;56.30
17208;DHT22;8720;48.488;9.202;2023-03-16T03:53:37;3.00;56.50
17208;DHT22;8720;48.488;9.202;2023-03-16T03:56:23;3.00;56.80
17208;DHT22;8720;48.488;9.202;2023-03-16T03:58:51;3.00;57.00
17208;DHT22;8720;48.488;9.202;2023-03-16T04:01:31;3.10;57.20
17208;DHT22;8720;48.488;9.202;2023-03-16T04:03:58;3.10;57.40
17208;DHT22;8720;48.488;9.202;2023-03-16T04:06:27;3.10;57.60
17208;DHT22;8720;48.488;9.202;2023-03-16T04:08:55;3.10;57.70
17208;DHT22;8720;48.488;9.202;2023-03-16T04:11:25;3.20;57.80
17208;DHT22;8720;48.488;9.202;2023-03-16T04:13:53;3.30;57.90
17208;DHT22;8720;48.488;9.202;2023-03-16T04:16:20;3.30;57.90
17208;DHT22;8720;48.488;9.202;2023-03-16T04:18:52;3.40;57.90
17208;DHT22;8720;48.488;9.202;2023-03-16T04:21:22;3.40;57.90
17208;DHT22;8720;48.488;9.202;2023-03-16T04:23:51;3.50;57.80
17208;DHT22;8720;48.488;9.202;2023-03-16T04:26:22;3.50;57.70
17208;DHT22;8720;48.488;9.202;2023-03-16T04:28:51;3.60;57.70
17208;DHT22;8720;48.488;9.202;2023-03-16T04:31:19;3.60;57.60
17208;DHT22;8720;48.488;9.202;2023-03-16T04:33:47;3.70;57.50
17208;DHT22;8720;48.488;9.202;2023-03-16T04:36:15;3.70;57.40
17208;DHT22;8720;48.488;9.202;2023-03-16T04:38:43;3.70;57.20
17208;DHT22;8720;48.488;9.202;2023-03-16T04:41:13;3.80;57.20
17208;DHT22;8720;48.488;9.202;2023-03-16T04:43:51;3.80;57.10
17208;DHT22;8720;48.488;9.202;2023-03-16T04:46:22;3.80;57.10
17208;DHT22;8720;48.488;9.202;2023-03-16T04:48:51;3.90;57.10
17208;DHT22;8720;48.488;9.202;2023-03-16T04:51:19;3.90;57.10
17208;DHT22;8720;48.488;9.202;2023-03-16T04:54:00;3.90;57.00
17208;DHT22;8720;48.488;9.202;2023-03-16T04:56:34;3.90;56.80
17208;DHT22;8720;48.488;9.202;2023-03-16T04:59:06;3.90;56.70
17208;DHT22;8720;48.488;9.202;2023-03-16T05:01:43;4.00;56.70
17208;DHT22;8720;48.488;9.202;2023-03-16T05:04:12;4.00;56.50
17208;DHT22;8720;48.488;9.202;2023-03-16T05:06:40;3.90;56.30
17208;DHT22;8720;48.488;9.202;2023-03-16T05:09:08;3.90;56.20
17208;DHT22;8720;48.488;9.202;2023-03-16T05:11:39;3.90;56.20
17208;DHT22;8720;48.488;9.202;2023-03-16T05:14:09;3.90;55.90
17208;DHT22;8720;48.488;9.202;2023-03-16T05:16:50;3.90;55.90
17208;DHT22;8720;48.488;9.202;2023-03-16T05:19:18;3.80;55.40
17208;DHT22;8720;48.488;9.202;2023-03-16T05:21:45;3.70;54.90
17208;DHT22;8720;48.488;9.202;2023-03-16T05:24:12;3.70;54.50
17208;DHT22;8720;48.488;9.202;2023-03-16T05:26:41;3.50;54.20
17208;DHT22;8720;48.488;9.202;2023-03-16T05:29:12;3.40;54.00
17208;DHT22;8720;48.488;9.202;2023-03-16T05:31:39;3.30;53.80
17208;DHT22;8720;48.488;9.202;2023-03-16T05:34:13;3.10;53.80
17208;DHT22;8720;48.488;9.202;2023-03-16T05:36:41;3.00;54.00
17208;DHT22;8720;48.488;9.202;2023-03-16T05:39:12;2.80;54.10
17208;DHT22;8720;48.488;9.202;2023-03-16T05:41:45;2.70;54.30
17208;DHT22;8720;48.488;9.202;2023-03-16T05:44:26;2.60;54.50
17208;DHT22;8720;48.488;9.202;2023-03-16T05:47:16;2.30;55.80
17208;DHT22;8720;48.488;9.202;2023-03-16T05:49:48;2.30;55.80
17208;DHT22;8720;48.488;9.202;2023-03-16T05:52:24;2.30;55.90
17208;DHT22;8720;48.488;9.202;2023-03-16T05:54:53;2.30;56.00
17208;DHT22;8720;48.488;9.202;2023-03-16T05:57:22;2.20;56.00
17208;DHT22;8720;48.488;9.202;2023-03-16T05:59:51;2.20;56.10
17208;DHT22;8720;48.488;9.202;2023-03-16T06:02:20;2.20;56.00
17208;DHT22;8720;48.488;9.202;2023-03-16T06:04:47;2.20;56.00
17208;DHT22;8720;48.488;9.202;2023-03-16T06:07:15;2.30;55.90
17208;DHT22;8720;48.488;9.202;2023-03-16T06:09:42;2.20;55.80
17208;DHT22;8720;48.488;9.202;2023-03-16T06:12:13;2.20;55.90
17208;DHT22;8720;48.488;9.202;2023-03-16T06:14:43;2.20;56.00
17208;DHT22;8720;48.488;9.202;2023-03-16T06:17:10;2.10;55.90
17208;DHT22;8720;48.488;9.202;2023-03-16T06:19:40;2.10;56.10
17208;DHT22;8720;48.488;9.202;2023-03-16T06:22:08;2.10;56.30
17208;DHT22;8720;48.488;9.202;2023-03-16T06:24:35;2.10;56.40
17208;DHT22;8720;48.488;9.202;2023-03-16T06:27:03;2.10;56.50
17208;DHT22;8720;48.488;9.202;2023-03-16T06:29:36;2.10;56.70
17208;DHT22;8720;48.488;9.202;2023-03-16T06:32:05;2.10;56.80
17208;DHT22;8720;48.488;9.202;2023-03-16T06:34:33;2.10;56.90
17208;DHT22;8720;48.488;9.202;2023-03-16T06:37:01;2.10;56.90
17208;DHT22;8720;48.488;9.202;2023-03-16T06:39:29;2.10;57.10
17208;DHT22;8720;48.488;9.202;2023-03-16T06:41:57;2.10;57.30
17208;DHT22;8720;48.488;9.202;2023-03-16T06:44:27;2.10;57.50
17208;DHT22;8720;48.488;9.202;2023-03-16T06:47:01;2.10;57.70
17208;DHT22;8720;48.488;9.202;2023-03-16T06:49:30;2.20;58.00
17208;DHT22;8720;48.488;9.202;2023-03-16T06:51:58;2.20;58.00
17208;DHT22;8720;48.488;9.202;2023-03-16T06:54:30;2.30;58.20
17208;DHT22;8720;48.488;9.202;2023-03-16T06:57:00;2.30;58.20
17208;DHT22;8720;48.488;9.202;2023-03-16T06:59:28;2.40;58.30
17208;DHT22;8720;48.488;9.202;2023-03-16T07:01:56;2.50;58.50
17208;DHT22;8720;48.488;9.202;2023-03-16T07:04:23;2.60;59.10
17208;DHT22;8720;48.488;9.202;2023-03-16T07:06:52;2.70;59.70
17208;DHT22;8720;48.488;9.202;2023-03-16T07:09:19;2.90;60.00
17208;DHT22;8720;48.488;9.202;2023-03-16T07:11:47;3.10;60.30
17208;DHT22;8720;48.488;9.202;2023-03-16T07:14:14;3.40;60.70
17208;DHT22;8720;48.488;9.202;2023-03-16T07:16:43;3.70;61.00
17208;DHT22;8720;48.488;9.202;2023-03-16T07:19:11;4.00;61.10
17208;DHT22;8720;48.488;9.202;2023-03-16T07:21:38;4.30;60.80
17208;DHT22;8720;48.488;9.202;2023-03-16T07:24:12;4.60;60.20
17208;DHT22;8720;48.488;9.202;2023-03-16T07:26:41;4.90;59.90
17208;DHT22;8720;48.488;9.202;2023-03-16T07:29:09;5.20;60.00
17208;DHT22;8720;48.488;9.202;2023-03-16T07:31:37;5.50;59.90
17208;DHT22;8720;48.488;9.202;2023-03-16T07:34:09;5.70;59.60
17208;DHT22;8720;48.488;9.202;2023-03-16T07:36:42;6.00;59.10
17208;DHT22;8720;48.488;9.202;2023-03-16T07:39:11;6.30;58.50
17208;DHT22;8720;48.488;9.202;2023-03-16T07:41:41;6.40;58.00
17208;DHT22;8720;48.488;9.202;2023-03-16T07:44:18;6.60;57.60
17208;DHT22;8720;48.488;9.202;2023-03-16T07:46:48;6.70;57.10
17208;DHT22;8720;48.488;9.202;2023-03-16T07:49:17;6.80;56.70
17208;DHT22;8720;48.488;9.202;2023-03-16T07:51:46;6.90;56.70
17208;DHT22;8720;48.488;9.202;2023-03-16T07:54:19;7.00;56.20
17208;DHT22;8720;48.488;9.202;2023-03-16T07:56:46;7.10;55.70
17208;DHT22;8720;48.488;9.202;2023-03-16T07:59:21;7.20;55.90
17208;DHT22;8720;48.488;9.202;2023-03-16T08:01:48;7.30;55.60
17208;DHT22;8720;48.488;9.202;2023-03-16T08:04:15;7.30;56.00
17208;DHT22;8720;48.488;9.202;2023-03-16T08:06:43;7.40;55.60
17208;DHT22;8720;48.488;9.202;2023-03-16T08:09:10;7.40;55.50
17208;DHT22;8720;48.488;9.202;2023-03-16T08:11:40;7.50;55.30
17208;DHT22;8720;48.488;9.202;2023-03-16T08:14:08;7.50;54.80
17208;DHT22;8720;48.488;9.202;2023-03-16T08:16:54;7.50;54.90
17208;DHT22;8720;48.488;9.202;2023-03-16T08:19:23;7.50;54.70
17208;DHT22;8720;48.488;9.202;2023-03-16T08:21:52;7.50;54.50
17208;DHT22;8720;48.488;9.202;2023-03-16T08:24:20;7.40;54.30
17208;DHT22;8720;48.488;9.202;2023-03-16T08:26:49;7.40;54.30
17208;DHT22;8720;48.488;9.202;2023-03-16T08:29:16;7.30;54.00
17208;DHT22;8720;48.488;9.202;2023-03-16T08:31:44;7.30;54.20
17208;DHT22;8720;48.488;9.202;2023-03-16T08:34:18;7.30;54.40
17208;DHT22;8720;48.488;9.202;2023-03-16T08:36:46;7.20;54.50
17208;DHT22;8720;48.488;9.202;2023-03-16T08:39:14;7.20;54.70
17208;DHT22;8720;48.488;9.202;2023-03-16T08:41:45;7.20;54.70
17208;DHT22;8720;48.488;9.202;2023-03-16T08:44:25;7.30;54.60
17208;DHT22;8720;48.488;9.202;2023-03-16T08:46:53;7.20;54.30
17208;DHT22;8720;48.488;9.202;2023-03-16T08:49:21;7.20;54.40
17208;DHT22;8720;48.488;9.202;2023-03-16T08:51:57;7.20;54.40
17208;DHT22;8720;48.488;9.202;2023-03-16T08:54:25;7.20;54.40
17208;DHT22;8720;48.488;9.202;2023-03-16T08:56:52;7.20;54.40
17208;DHT22;8720;48.488;9.202;2023-03-16T08:59:19;7.20;54.60
17208;DHT22;8720;48.488;9.202;2023-03-16T09:01:48;7.20;54.70
17208;DHT22;8720;48.488;9.202;2023-03-16T09:04:15;7.20;54.50
17208;DHT22;8720;48.488;9.202;2023-03-16T09:06:43;7.30;54.70
17208;DHT22;8720;48.488;9.202;2023-03-16T09:09:10;7.30;54.80
17208;DHT22;8720;48.488;9.202;2023-03-16T09:11:37;7.30;54.90
17208;DHT22;8720;48.488;9.202;2023-03-16T09:14:05;7.40;55.10
17208;DHT22;8720;48.488;9.202;2023-03-16T09:16:32;7.40;55.70
17208;DHT22;8720;48.488;9.202;2023-03-16T09:19:01;7.50;54.80
17208;DHT22;8720;48.488;9.202;2023-03-16T09:21:28;7.60;54.50
17208;DHT22;8720;48.488;9.202;2023-03-16T09:23:55;7.60;54.80
17208;DHT22;8720;48.488;9.202;2023-03-16T09:26:23;7.70;54.90
17208;DHT22;8720;48.488;9.202;2023-03-16T09:28:50;7.80;55.50
17208;DHT22;8720;48.488;9.202;2023-03-16T09:31:19;7.90;54.80
17208;DHT22;8720;48.488;9.202;2023-03-16T09:33:47;8.00;54.70
17208;DHT22;8720;48.488;9.202;2023-03-16T09:36:16;8.10;54.80
17208;DHT22;8720;48.488;9.202;2023-03-16T09:38:43;8.20;54.30
17208;DHT22;8720;48.488;9.202;2023-03-16T09:41:23;8.30;53.90
17208;DHT22;8720;48.488;9.202;2023-03-16T09:44:10;8.50;52.10
17208;DHT22;8720;48.488;9.202;2023-03-16T09:46:51;8.70;52.10
17208;DHT22;8720;48.488;9.202;2023-03-16T09:49:24;8.90;52.70
17208;DHT22;8720;48.488;9.202;2023-03-16T09:51:59;9.10;51.90
17208;DHT22;8720;48.488;9.202;2023-03-16T09:54:39;9.40;51.40
17208;DHT22;8720;48.488;9.202;2023-03-16T09:57:19;9.60;51.00
17208;DHT22;8720;48.488;9.202;2023-03-16T09:59:52;9.80;50.70
17208;DHT22;8720;48.488;9.202;2023-03-16T10:02:46;10.00;50.10
17208;DHT22;8720;48.488;9.202;2023-03-16T10:05:26;10.20;47.90
17208;DHT22;8720;48.488;9.202;2023-03-16T10:08:05;10.40;49.40
17208;DHT22;8720;48.488;9.202;2023-03-16T10:10:57;10.60;48.10
17208;DHT22;8720;48.488;9.202;2023-03-16T10:13:40;10.80;48.30
17208;DHT22;8720;48.488;9.202;2023-03-16T10:16:13;11.00;48.00
17208;DHT22;8720;48.488;9.202;2023-03-16T10:18:46;11.20;48.70
17208;DHT22;8720;48.488;9.202;2023-03-16T10:21:18;11.40;48.50
17208;DHT22;8720;48.488;9.202;2023-03-16T10:23:51;11.60;47.90
17208;DHT22;8720;48.488;9.202;2023-03-16T10:26:24;11.80;47.30
17208;DHT22;8720;48.488;9.202;2023-03-16T10:28:57;11.90;47.20
17208;DHT22;8720;48.488;9.202;2023-03-16T10:31:27;12.10;47.60
17208;DHT22;8720;48.488;9.202;2023-03-16T10:34:03;12.20;47.40
17208;DHT22;8720;48.488;9.202;2023-03-16T10:36:33;12.30;46.30
17208;DHT22;8720;48.488;9.202;2023-03-16T10:39:06;12.40;45.90
17208;DHT22;8720;48.488;9.202;2023-03-16T10:41:37;12.50;45.40
17208;DHT22;8720;48.488;9.202;2023-03-16T10:44:10;12.60;45.90
17208;DHT22;8720;48.488;9.202;2023-03-16T10:46:40;12.70;45.20
17208;DHT22;8720;48.488;9.202;2023-03-16T10:49:21;12.80;45.30
17208;DHT22;8720;48.488;9.202;2023-03-16T10:51:52;12.90;44.20
17208;DHT22;8720;48.488;9.202;2023-03-16T10:54:27;12.90;45.20
17208;DHT22;8720;48.488;9.202;2023-03-16T10:56:57;13.00;44.40
17208;DHT22;8720;48.488;9.202;2023-03-16T10:59:28;13.10;45.10
17208;DHT22;8720;48.488;9.202;2023-03-16T11:02:00;13.10;44.40
17208;DHT22;8720;48.488;9.202;2023-03-16T11:04:30;13.20;44.40
17208;DHT22;8720;48.488;9.202;2023-03-16T11:06:58;13.20;43.70
17208;DHT22;8720;48.488;9.202;2023-03-16T11:09:31;13.30;44.00
17208;DHT22;8720;48.488;9.202;2023-03-16T11:12:02;13.30;42.60
17208;DHT22;8720;48.488;9.202;2023-03-16T11:14:42;13.40;43.70
17208;DHT22;8720;48.488;9.202;2023-03-16T11:17:13;13.40;43.10
17208;DHT22;8720;48.488;9.202;2023-03-16T11:19:50;13.50;43.00
17208;DHT22;8720;48.488;9.202;2023-03-16T11:22:21;13.50;42.30
17208;DHT22;8720;48.488;9.202;2023-03-16T11:24:56;13.50;42.60
17208;DHT22;8720;48.488;9.202;2023-03-16T11:27:35;13.50;42.20
17208;DHT22;8720;48.488;9.202;2023-03-16T11:30:12;13.50;42.20
17208;DHT22;8720;48.488;9.202;2023-03-16T11:32:47;13.60;42.00
17208;DHT22;8720;48.488;9.202;2023-03-16T11:35:19;13.60;42.40
17208;DHT22;8720;48.488;9.202;2023-03-16T11:38:03;13.60;42.30
17208;DHT22;8720;48.488;9.202;2023-03-16T11:40:49;13.70;41.10
17208;DHT22;8720;48.488;9.202;2023-03-16T11:43:42;13.70;41.40
17208;DHT22;8720;48.488;9.202;2023-03-16T11:46:22;13.80;41.10
17208;DHT22;8720;48.488;9.202;2023-03-16T11:49:15;13.80;42.50
17208;DHT22;8720;48.488;9.202;2023-03-16T11:52:14;13.90;40.50
17208;DHT22;8720;48.488;9.202;2023-03-16T11:54:59;13.90;41.60
17208;DHT22;8720;48.488;9.202;2023-03-16T11:57:46;14.00;40.80
17208;DHT22;8720;48.488;9.202;2023-03-16T12:00:30;14.00;40.90
17208;DHT22;8720;48.488;9.202;2023-03-16T12:03:29;14.10;40.90
17208;DHT22;8720;48.488;9.202;2023-03-16T12:06:14;14.10;40.00
17208;DHT22;8720;48.488;9.202;2023-03-16T12:09:06;14.20;41.00
17208;DHT22;8720;48.488;9.202;2023-03-16T12:12:03;14.20;40.30
17208;DHT22;8720;48.488;9.202;2023-03-16T12:14:42;14.20;40.90
17208;DHT22;8720;48.488;9.202;2023-03-16T12:17:15;14.20;40.90
17208;DHT22;8720;48.488;9.202;2023-03-16T12:19:50;14.20;41.00
17208;DHT22;8720;48.488;9.202;2023-03-16T12:22:22;14.30;40.60
17208;DHT22;8720;48.488;9.202;2023-03-16T12:24:55;14.30;41.30
17208;DHT22;8720;48.488;9.202;2023-03-16T12:27:26;14.30;41.70
17208;DHT22;8720;48.488;9.202;2023-03-16T12:30:11;14.40;40.80
17208;DHT22;8720;48.488;9.202;2023-03-16T12:32:55;14.50;40.00
17208;DHT22;8720;48.488;9.202;2023-03-16T12:35:35;14.60;40.50
17208;DHT22;8720;48.488;9.202;2023-03-16T12:38:24;14.70;39.90
17208;DHT22;8720;48.488;9.202;2023-03-16T12:41:15;14.70;39.30
17208;DHT22;8720;48.488;9.202;2023-03-16T12:44:04;14.80;38.90
17208;DHT22;8720;48.488;9.202;2023-03-16T12:46:46;14.80;38.70
17208;DHT22;8720;48.488;9.202;2023-03-16T12:49:18;14.80;39.70
17208;DHT22;8720;48.488;9.202;2023-03-16T12:51:57;14.80;40.20
17208;DHT22;8720;48.488;9.202;2023-03-16T12:54:26;14.80;38.80
17208;DHT22;8720;48.488;9.202;2023-03-16T12:57:00;14.80;40.00
17208;DHT22;8720;48.488;9.202;2023-03-16T12:59:37;14.80;38.60
17208;DHT22;8720;48.488;9.202;2023-03-16T13:02:14;14.80;38.30
17208;DHT22;8720;48.488;9.202;2023-03-16T13:04:45;14.80;38.80
17208;DHT22;8720;48.488;9.202;2023-03-16T13:07:18;14.80;39.20
17208;DHT22;8720;48.488;9.202;2023-03-16T13:09:51;14.80;39.00
17208;DHT22;8720;48.488;9.202;2023-03-16T13:12:25;14.80;38.50
17208;DHT22;8720;48.488;9.202;2023-03-16T13:14:55;14.90;38.80
17208;DHT22;8720;48.488;9.202;2023-03-16T13:17:29;14.90;39.00
17208;DHT22;8720;48.488;9.202;2023-03-16T13:20:01;14.90;37.60
17208;DHT22;8720;48.488;9.202;2023-03-16T13:23:05;14.90;38.40
17208;DHT22;8720;48.488;9.202;2023-03-16T13:25:39;15.00;38.60
17208;DHT22;8720;48.488;9.202;2023-03-16T13:28:13;15.00;37.70
17208;DHT22;8720;48.488;9.202;2023-03-16T13:30:46;15.10;37.90
17208;DHT22;8720;48.488;9.202;2023-03-16T13:33:20;15.10;37.80
17208;DHT22;8720;48.488;9.202;2023-03-16T13:35:51;15.10;37.60
17208;DHT22;8720;48.488;9.202;2023-03-16T13:38:21;15.10;38.20
17208;DHT22;8720;48.488;9.202;2023-03-16T13:40:54;15.10;38.10
17208;DHT22;8720;48.488;9.202;2023-03-16T13:43:25;15.10;37.80
17208;DHT22;8720;48.488;9.202;2023-03-16T13:45:54;15.20;38.00
17208;DHT22;8720;48.488;9.202;2023-03-16T13:48:23;15.20;38.10
17208;DHT22;8720;48.488;9.202;2023-03-16T13:50:51;15.20;37.80
17208;DHT22;8720;48.488;9.202;2023-03-16T13:53:21;15.20;38.10
17208;DHT22;8720;48.488;9.202;2023-03-16T13:55:51;15.30;37.90
17208;DHT22;8720;48.488;9.202;2023-03-16T13:58:23;15.30;37.80
17208;DHT22;8720;48.488;9.202;2023-03-16T14:00:57;15.30;37.30
17208;DHT22;8720;48.488;9.202;2023-03-16T14:03:32;15.40;37.90
17208;DHT22;8720;48.488;9.202;2023-03-16T14:06:01;15.40;37.30
17208;DHT22;8720;48.488;9.202;2023-03-16T14:08:30;15.50;38.60
17208;DHT22;8720;48.488;9.202;2023-03-16T14:11:01;15.50;38.40
17208;DHT22;8720;48.488;9.202;2023-03-16T14:13:33;15.60;38.50
17208;DHT22;8720;48.488;9.202;2023-03-16T14:16:10;15.70;37.60
17208;DHT22;8720;48.488;9.202;2023-03-16T14:18:43;15.80;37.60
17208;DHT22;8720;48.488;9.202;2023-03-16T14:21:15;15.80;37.90
17208;DHT22;8720;48.488;9.202;2023-03-16T14:23:45;15.90;37.90
17208;DHT22;8720;48.488;9.202;2023-03-16T14:26:18;16.00;38.10
17208;DHT22;8720;48.488;9.202;2023-03-16T14:28:54;16.00;38.00
17208;DHT22;8720;48.488;9.202;2023-03-16T14:31:32;16.00;36.90
17208;DHT22;8720;48.488;9.202;2023-03-16T14:34:04;16.10;37.40
17208;DHT22;8720;48.488;9.202;2023-03-16T14:36:35;16.10;37.60
17208;DHT22;8720;48.488;9.202;2023-03-16T14:39:14;16.10;37.80
17208;DHT22;8720;48.488;9.202;2023-03-16T14:41:47;16.10;36.80
17208;DHT22;8720;48.488;9.202;2023-03-16T14:44:19;16.10;37.60
17208;DHT22;8720;48.488;9.202;2023-03-16T14:46:48;16.10;37.30
17208;DHT22;8720;48.488;9.202;2023-03-16T14:49:22;16.10;37.40
17208;DHT22;8720;48.488;9.202;2023-03-16T14:51:54;16.10;37.20
17208;DHT22;8720;48.488;9.202;2023-03-16T14:54:25;16.10;37.40
17208;DHT22;8720;48.488;9.202;2023-03-16T14:56:58;16.10;37.70
17208;DHT22;8720;48.488;9.202;2023-03-16T14:59:27;16.10;37.60
17208;DHT22;8720;48.488;9.202;2023-03-16T15:01:55;16.10;37.90
17208;DHT22;8720;48.488;9.202;2023-03-16T15:04:28;16.10;37.70
17208;DHT22;8720;48.488;9.202;2023-03-16T15:06:59;16.10;37.10
17208;DHT22;8720;48.488;9.202;2023-03-16T15:09:35;16.10;37.70
17208;DHT22;8720;48.488;9.202;2023-03-16T15:12:12;16.10;37.40
17208;DHT22;8720;48.488;9.202;2023-03-16T15:14:41;16.10;36.90
17208;DHT22;8720;48.488;9.202;2023-03-16T15:17:26;16.10;38.00
17208;DHT22;8720;48.488;9.202;2023-03-16T15:19:55;16.10;38.00
17208;DHT22;8720;48.488;9.202;2023-03-16T15:22:26;16.00;37.60
17208;DHT22;8720;48.488;9.202;2023-03-16T15:24:57;16.00;37.50
17208;DHT22;8720;48.488;9.202;2023-03-16T15:27:45;16.00;38.00
17208;DHT22;8720;48.488;9.202;2023-03-16T15:30:20;16.00;38.10
17208;DHT22;8720;48.488;9.202;2023-03-16T15:32:49;15.90;37.90
17208;DHT22;8720;48.488;9.202;2023-03-16T15:35:18;15.90;38.40
17208;DHT22;8720;48.488;9.202;2023-03-16T15:37:46;15.90;38.00
17208;DHT22;8720;48.488;9.202;2023-03-16T15:40:16;15.90;38.30
17208;DHT22;8720;48.488;9.202;2023-03-16T15:42:46;15.90;38.20
17208;DHT22;8720;48.488;9.202;2023-03-16T15:45:16;15.80;38.20
17208;DHT22;8720;48.488;9.202;2023-03-16T15:47:45;15.80;38.00
17208;DHT22;8720;48.488;9.202;2023-03-16T15:50:15;15.80;38.20
17208;DHT22;8720;48.488;9.202;2023-03-16T15:52:49;15.80;37.90
17208;DHT22;8720;48.488;9.202;2023-03-16T15:55:31;15.80;37.70
17208;DHT22;8720;48.488;9.202;2023-03-16T15:58:01;15.70;37.80
17208;DHT22;8720;48.488;9.202;2023-03-16T16:00:31;15.70;38.10
17208;DHT22;8720;48.488;9.202;2023-03-16T16:03:02;15.60;37.90
17208;DHT22;8720;48.488;9.202;2023-03-16T16:05:33;15.60;38.00
17208;DHT22;8720;48.488;9.202;2023-03-16T16:08:01;15.50;37.90
17208;DHT22;8720;48.488;9.202;2023-03-16T16:10:28;15.50;38.20
17208;DHT22;8720;48.488;9.202;2023-03-16T16:12:57;15.50;38.30
17208;DHT22;8720;48.488;9.202;2023-03-16T16:15:27;15.50;38.30
17208;DHT22;8720;48.488;9.202;2023-03-16T16:17:59;15.40;38.40
17208;DHT22;8720;48.488;9.202;2023-03-16T16:20:29;15.40;38.40
17208;DHT22;8720;48.488;9.202;2023-03-16T16:22:59;15.40;38.30
17208;DHT22;8720;48.488;9.202;2023-03-16T16:25:33;15.30;38.30